sensor_id;sensor_type;location;lat;lon;timestamp;pressure;altitude;pressure_sealevel;temperature;humidity
48089;BME280;33867;50.314;7.802;2023-05-12T00:00:25;100162.81;;;12.27;nan
48089;BME280;33867;50.314;7.802;2023-05-12T00:03:45;100165.75;;;12.42;nan
48089;BME280;33867;50.314;7.802;2023-05-12T00:07:04;100172.34;;;12.39;nan
48089;BME280;33867;50.314;7.802;2023-05-12T00:10:30;100166.16;;;12.47;nan
48089;BME280;33867;50.314;7.802;2023-05-12T00:13:53;100172.38;;;12.47;nan
48089;BME280;33867;50.314;7.802;2023-05-12T00:17:15;100162.31;;;12.57;nan
48089;BME280;33867;50.314;7.802;2023-05-12T00:20:35;100165.97;;;12.48;nan
48089;BME280;33867;50.314;7.802;2023-05-12T00:23:54;100158.22;;;12.53;nan
48089;BME280;33867;50.314;7.802;2023-05-12T00:27:14;100152.97;;;12.44;nan
48089;BME280;33867;50.314;7.802;2023-05-12T00:30:34;100151.56;;;12.40;nan
48089;BME280;33867;50.314;7.802;2023-05-12T00:33:53;100156.97;;;12.40;nan
48089;BME280;33867;50.314;7.802;2023-05-12T00:37:12;100152.63;;;12.47;nan
48089;BME280;33867;50.314;7.802;2023-05-12T00:40:45;100139.13;;;12.47;nan
48089;BME280;33867;50.314;7.802;2023-05-12T00:44:06;100141.31;;;12.43;nan
48089;BME280;33867;50.314;7.802;2023-05-12T00:47:26;100148.97;;;12.30;nan
48089;BME280;33867;50.314;7.802;2023-05-12T00:50:45;100142.97;;;12.36;nan
48089;BME280;33867;50.314;7.802;2023-05-12T00:54:05;100147.03;;;12.40;nan
48089;BME280;33867;50.314;7.802;2023-05-12T00:57:30;100146.00;;;12.33;nan
48089;BME280;33867;50.314;7.802;2023-05-12T01:01:19;100140.75;;;12.32;nan
48089;BME280;33867;50.314;7.802;2023-05-12T01:04:59;100140.38;;;12.26;nan
48089;BME280;33867;50.314;7.802;2023-05-12T01:13:20;100128.53;;;12.53;nan
48089;BME280;33867;50.314;7.802;2023-05-12T01:16:53;100124.41;;;12.41;nan
48089;BME280;33867;50.314;7.802;2023-05-12T01:25:10;100118.66;;;12.36;nan
48089;BME280;33867;50.314;7.802;2023-05-12T01:36:34;100114.97;;;12.37;nan
48089;BME280;33867;50.314;7.802;2023-05-12T01:44:48;100124.28;;;12.17;nan
48089;BME280;33867;50.314;7.802;2023-05-12T01:48:16;100132.69;;;12.14;nan
48089;BME280;33867;50.314;7.802;2023-05-12T01:51:48;100125.78;;;11.85;nan
48089;BME280;33867;50.314;7.802;2023-05-12T01:55:31;100136.75;;;12.10;nan
48089;BME280;33867;50.314;7.802;2023-05-12T01:58:53;100132.94;;;12.28;nan
48089;BME280;33867;50.314;7.802;2023-05-12T02:11:46;100124.47;;;12.49;nan
48089;BME280;33867;50.314;7.802;2023-05-12T02:15:42;100124.13;;;12.52;nan
48089;BME280;33867;50.314;7.802;2023-05-12T02:20:03;100133.13;;;12.27;nan
48089;BME280;33867;50.314;7.802;2023-05-12T02:28:06;100121.19;;;12.38;nan
48089;BME280;33867;50.314;7.802;2023-05-12T02:31:47;100124.28;;;12.51;nan
48089;BME280;33867;50.314;7.802;2023-05-12T02:35:10;100124.91;;;12.37;nan
48089;BME280;33867;50.314;7.802;2023-05-12T02:38:33;100128.81;;;12.42;nan
48089;BME280;33867;50.314;7.802;2023-05-12T02:46:41;100123.09;;;12.45;nan
48089;BME280;33867;50.314;7.802;2023-05-12T02:50:31;100127.22;;;12.57;nan
48089;BME280;33867;50.314;7.802;2023-05-12T02:53:58;100122.44;;;12.51;nan
48089;BME280;33867;50.314;7.802;2023-05-12T02:57:21;100119.94;;;12.58;nan
48089;BME280;33867;50.314;7.802;2023-05-12T03:00:43;100125.53;;;12.56;nan
48089;BME280;33867;50.314;7.802;2023-05-12T03:04:23;100120.06;;;12.48;nan
48089;BME280;33867;50.314;7.802;2023-05-12T03:08:28;100119.75;;;12.51;nan
48089;BME280;33867;50.314;7.802;2023-05-12T03:11:48;100113.63;;;12.41;nan
48089;BME280;33867;50.314;7.802;2023-05-12T03:15:11;100119.50;;;12.37;nan
48089;BME280;33867;50.314;7.802;2023-05-12T03:18:35;100125.13;;;12.43;nan
48089;BME280;33867;50.314;7.802;2023-05-12T03:21:56;100116.72;;;12.54;nan
48089;BME280;33867;50.314;7.802;2023-05-12T03:25:23;100124.47;;;12.49;nan
48089;BME280;33867;50.314;7.802;2023-05-12T03:29:30;100118.84;;;12.43;nan
48089;BME280;33867;50.314;7.802;2023-05-12T03:33:05;100118.34;;;12.39;nan
48089;BME280;33867;50.314;7.802;2023-05-12T03:40:45;100118.34;;;12.39;nan
48089;BME280;33867;50.314;7.802;2023-05-12T03:44:28;100118.34;;;12.39;nan
48089;BME280;33867;50.314;7.802;2023-05-12T03:48:09;100116.31;;;12.41;nan
48089;BME280;33867;50.314;7.802;2023-05-12T03:51:42;100119.06;;;12.49;nan
48089;BME280;33867;50.314;7.802;2023-05-12T03:55:36;100121.09;;;12.47;nan
48089;BME280;33867;50.314;7.802;2023-05-12T03:59:34;100109.59;;;12.45;nan
48089;BME280;33867;50.314;7.802;2023-05-12T04:02:54;100122.81;;;12.22;nan
48089;BME280;33867;50.314;7.802;2023-05-12T04:06:27;100126.69;;;12.20;nan
48089;BME280;33867;50.314;7.802;2023-05-12T04:09:46;100126.22;;;12.07;nan
48089;BME280;33867;50.314;7.802;2023-05-12T04:17:30;100131.38;;;12.18;nan
48089;BME280;33867;50.314;7.802;2023-05-12T04:25:44;100131.78;;;12.05;nan
48089;BME280;33867;50.314;7.802;2023-05-12T04:29:49;100147.56;;;11.92;nan
48089;BME280;33867;50.314;7.802;2023-05-12T04:33:24;100155.13;;;11.53;nan
48089;BME280;33867;50.314;7.802;2023-05-12T04:37:04;100157.97;;;11.33;nan
48089;BME280;33867;50.314;7.802;2023-05-12T04:40:23;100164.84;;;11.28;nan
48089;BME280;33867;50.314;7.802;2023-05-12T04:44:09;100162.53;;;11.51;nan
48089;BME280;33867;50.314;7.802;2023-05-12T04:47:45;100167.38;;;11.47;nan
48089;BME280;33867;50.314;7.802;2023-05-12T04:51:18;100176.16;;;11.31;nan
48089;BME280;33867;50.314;7.802;2023-05-12T04:55:19;100188.41;;;11.43;nan
48089;BME280;33867;50.314;7.802;2023-05-12T04:58:50;100199.25;;;11.34;nan
48089;BME280;33867;50.314;7.802;2023-05-12T05:02:15;100206.13;;;11.28;nan
48089;BME280;33867;50.314;7.802;2023-05-12T05:06:19;100213.03;;;11.31;nan
48089;BME280;33867;50.314;7.802;2023-05-12T05:09:40;100207.06;;;11.37;nan
48089;BME280;33867;50.314;7.802;2023-05-12T05:18:18;100221.94;;;12.12;nan
48089;BME280;33867;50.314;7.802;2023-05-12T05:21:40;100218.88;;;12.33;nan
48089;BME280;33867;50.314;7.802;2023-05-12T05:25:04;100233.81;;;12.45;nan
48089;BME280;33867;50.314;7.802;2023-05-12T05:28:32;100221.06;;;12.55;nan
48089;BME280;33867;50.314;7.802;2023-05-12T05:32:19;100232.16;;;12.52;nan
48089;BME280;33867;50.314;7.802;2023-05-12T05:45:07;100244.53;;;12.89;nan
48089;BME280;33867;50.314;7.802;2023-05-12T05:48:26;100243.00;;;12.86;nan
48089;BME280;33867;50.314;7.802;2023-05-12T05:52:18;100244.53;;;12.89;nan
48089;BME280;33867;50.314;7.802;2023-05-12T06:00:32;100241.47;;;13.77;nan
48089;BME280;33867;50.314;7.802;2023-05-12T06:04:08;100254.81;;;14.68;nan
48089;BME280;33867;50.314;7.802;2023-05-12T06:11:43;100255.81;;;15.30;nan
48089;BME280;33867;50.314;7.802;2023-05-12T06:24:53;100283.78;;;13.94;nan
48089;BME280;33867;50.314;7.802;2023-05-12T06:33:23;100288.16;;;13.79;nan
48089;BME280;33867;50.314;7.802;2023-05-12T06:36:43;100290.19;;;13.77;nan
48089;BME280;33867;50.314;7.802;2023-05-12T06:44:30;100287.19;;;14.04;nan
48089;BME280;33867;50.314;7.802;2023-05-12T06:51:42;100296.31;;;14.03;nan
48089;BME280;33867;50.314;7.802;2023-05-12T06:55:04;100290.91;;;14.19;nan
48089;BME280;33867;50.314;7.802;2023-05-12T07:07:31;100307.47;;;14.00;nan
48089;BME280;33867;50.314;7.802;2023-05-12T07:10:50;100308.50;;;14.15;nan
48089;BME280;33867;50.314;7.802;2023-05-12T07:14:09;100304.41;;;13.87;nan
48089;BME280;33867;50.314;7.802;2023-05-12T07:17:32;100308.84;;;14.20;nan
48089;BME280;33867;50.314;7.802;2023-05-12T07:20:52;100308.69;;;14.22;nan
48089;BME280;33867;50.314;7.802;2023-05-12T07:24:37;100310.56;;;14.38;nan
48089;BME280;33867;50.314;7.802;2023-05-12T07:33:04;100321.53;;;14.03;nan
48089;BME280;33867;50.314;7.802;2023-05-12T07:36:24;100328.47;;;14.30;nan
48089;BME280;33867;50.314;7.802;2023-05-12T07:39:43;100324.75;;;14.31;nan
48089;BME280;33867;50.314;7.802;2023-05-12T07:43:05;100320.72;;;14.76;nan
48089;BME280;33867;50.314;7.802;2023-05-12T07:47:20;100316.50;;;14.66;nan
48089;BME280;33867;50.314;7.802;2023-05-12T07:54:49;100308.03;;;14.60;nan
48089;BME280;33867;50.314;7.802;2023-05-12T07:58:14;100320.72;;;14.36;nan
48089;BME280;33867;50.314;7.802;2023-05-12T08:06:38;100315.75;;;15.52;nan
48089;BME280;33867;50.314;7.802;2023-05-12T08:10:00;100321.44;;;15.73;nan
48089;BME280;33867;50.314;7.802;2023-05-12T08:13:27;100321.09;;;15.76;nan
48089;BME280;33867;50.314;7.802;2023-05-12T08:16:50;100318.16;;;16.31;nan
48089;BME280;33867;50.314;7.802;2023-05-12T08:20:10;100321.69;;;16.40;nan
48089;BME280;33867;50.314;7.802;2023-05-12T08:23:36;100324.16;;;16.50;nan
48089;BME280;33867;50.314;7.802;2023-05-12T08:36:51;100323.53;;;17.00;nan
48089;BME280;33867;50.314;7.802;2023-05-12T08:40:21;100327.25;;;16.47;nan
48089;BME280;33867;50.314;7.802;2023-05-12T08:43:43;100327.09;;;16.40;nan
48089;BME280;33867;50.314;7.802;2023-05-12T08:47:03;100335.03;;;16.73;nan
48089;BME280;33867;50.314;7.802;2023-05-12T08:50:35;100334.66;;;16.30;nan
48089;BME280;33867;50.314;7.802;2023-05-12T08:54:16;100338.53;;;16.58;nan
48089;BME280;33867;50.314;7.802;2023-05-12T08:57:45;100338.53;;;16.96;nan
48089;BME280;33867;50.314;7.802;2023-05-12T09:01:10;100342.47;;;16.93;nan
48089;BME280;33867;50.314;7.802;2023-05-12T09:04:48;100336.84;;;17.39;nan
48089;BME280;33867;50.314;7.802;2023-05-12T09:08:18;100338.94;;;17.37;nan
48089;BME280;33867;50.314;7.802;2023-05-12T09:11:37;100347.09;;;17.08;nan
48089;BME280;33867;50.314;7.802;2023-05-12T09:15:03;100339.13;;;17.21;nan
48089;BME280;33867;50.314;7.802;2023-05-12T09:18:54;100340.34;;;17.48;nan
48089;BME280;33867;50.314;7.802;2023-05-12T09:22:16;100339.53;;;17.98;nan
48089;BME280;33867;50.314;7.802;2023-05-12T09:25:37;100349.81;;;18.39;nan
48089;BME280;33867;50.314;7.802;2023-05-12T09:29:05;100333.22;;;17.76;nan
48089;BME280;33867;50.314;7.802;2023-05-12T09:32:31;100343.56;;;18.45;nan
48089;BME280;33867;50.314;7.802;2023-05-12T09:35:51;100346.00;;;18.76;nan
48089;BME280;33867;50.314;7.802;2023-05-12T09:39:11;100336.88;;;18.90;nan
48089;BME280;33867;50.314;7.802;2023-05-12T09:42:34;100341.72;;;18.67;nan
48089;BME280;33867;50.314;7.802;2023-05-12T09:45:53;100337.03;;;18.61;nan
48089;BME280;33867;50.314;7.802;2023-05-12T09:49:24;100322.56;;;18.60;nan
48089;BME280;33867;50.314;7.802;2023-05-12T09:52:44;100336.44;;;18.87;nan
48089;BME280;33867;50.314;7.802;2023-05-12T09:56:04;100335.97;;;19.11;nan
48089;BME280;33867;50.314;7.802;2023-05-12T09:59:26;100331.09;;;19.41;nan
48089;BME280;33867;50.314;7.802;2023-05-12T10:02:49;100339.28;;;19.35;nan
48089;BME280;33867;50.314;7.802;2023-05-12T10:06:13;100334.72;;;19.48;nan
48089;BME280;33867;50.314;7.802;2023-05-12T10:09:34;100339.06;;;19.36;nan
48089;BME280;33867;50.314;7.802;2023-05-12T10:12:55;100331.84;;;18.66;nan
48089;BME280;33867;50.314;7.802;2023-05-12T10:16:15;100338.06;;;18.60;nan
48089;BME280;33867;50.314;7.802;2023-05-12T10:19:34;100328.56;;;18.98;nan
48089;BME280;33867;50.314;7.802;2023-05-12T10:22:55;100325.28;;;19.10;nan
48089;BME280;33867;50.314;7.802;2023-05-12T10:26:16;100326.41;;;19.56;nan
48089;BME280;33867;50.314;7.802;2023-05-12T10:29:37;100313.97;;;20.08;nan
48089;BME280;33867;50.314;7.802;2023-05-12T10:32:57;100307.28;;;20.24;nan
48089;BME280;33867;50.314;7.802;2023-05-12T10:36:18;100309.03;;;20.45;nan
48089;BME280;33867;50.314;7.802;2023-05-12T10:39:46;100307.28;;;21.30;nan
48089;BME280;33867;50.314;7.802;2023-05-12T10:43:05;100305.91;;;22.17;nan
48089;BME280;33867;50.314;7.802;2023-05-12T10:46:26;100298.59;;;22.61;nan
48089;BME280;33867;50.314;7.802;2023-05-12T10:49:45;100304.78;;;21.02;nan
48089;BME280;33867;50.314;7.802;2023-05-12T10:53:05;100303.16;;;20.61;nan
48089;BME280;33867;50.314;7.802;2023-05-12T10:56:28;100309.88;;;19.30;nan
48089;BME280;33867;50.314;7.802;2023-05-12T10:59:55;100303.72;;;18.93;nan
48089;BME280;33867;50.314;7.802;2023-05-12T11:03:16;100308.84;;;17.90;nan
48089;BME280;33867;50.314;7.802;2023-05-12T11:06:37;100319.09;;;16.70;nan
48089;BME280;33867;50.314;7.802;2023-05-12T11:09:58;100328.13;;;16.16;nan
48089;BME280;33867;50.314;7.802;2023-05-12T11:13:18;100328.16;;;16.39;nan
48089;BME280;33867;50.314;7.802;2023-05-12T11:16:42;100325.66;;;16.75;nan
48089;BME280;33867;50.314;7.802;2023-05-12T11:20:01;100333.44;;;16.78;nan
48089;BME280;33867;50.314;7.802;2023-05-12T11:23:27;100345.53;;;16.30;nan
48089;BME280;33867;50.314;7.802;2023-05-12T11:26:47;100350.16;;;15.98;nan
48089;BME280;33867;50.314;7.802;2023-05-12T11:30:09;100358.31;;;15.98;nan
48089;BME280;33867;50.314;7.802;2023-05-12T11:33:28;100358.44;;;16.28;nan
48089;BME280;33867;50.314;7.802;2023-05-12T11:36:50;100353.63;;;16.38;nan
48089;BME280;33867;50.314;7.802;2023-05-12T11:40:19;100353.13;;;16.57;nan
48089;BME280;33867;50.314;7.802;2023-05-12T11:43:38;100352.47;;;16.55;nan
48089;BME280;33867;50.314;7.802;2023-05-12T11:50:23;100341.59;;;16.55;nan
48089;BME280;33867;50.314;7.802;2023-05-12T11:53:42;100344.69;;;16.52;nan
48089;BME280;33867;50.314;7.802;2023-05-12T11:57:01;100348.06;;;16.77;nan
48089;BME280;33867;50.314;7.802;2023-05-12T12:00:29;100349.53;;;17.17;nan
48089;BME280;33867;50.314;7.802;2023-05-12T12:03:51;100354.03;;;17.40;nan
48089;BME280;33867;50.314;7.802;2023-05-12T12:07:11;100352.06;;;17.48;nan
48089;BME280;33867;50.314;7.802;2023-05-12T12:10:30;100359.47;;;17.40;nan
48089;BME280;33867;50.314;7.802;2023-05-12T12:13:50;100366.78;;;17.10;nan
48089;BME280;33867;50.314;7.802;2023-05-12T12:17:14;100372.13;;;17.03;nan
48089;BME280;33867;50.314;7.802;2023-05-12T12:20:34;100382.78;;;16.90;nan
48089;BME280;33867;50.314;7.802;2023-05-12T12:23:54;100371.78;;;17.06;nan
48089;BME280;33867;50.314;7.802;2023-05-12T12:27:16;100374.56;;;17.13;nan
48089;BME280;33867;50.314;7.802;2023-05-12T12:30:35;100369.50;;;17.10;nan
48089;BME280;33867;50.314;7.802;2023-05-12T12:33:55;100364.56;;;17.72;nan
48089;BME280;33867;50.314;7.802;2023-05-12T12:37:14;100361.16;;;18.00;nan
48089;BME280;33867;50.314;7.802;2023-05-12T12:40:33;100358.53;;;17.92;nan
48089;BME280;33867;50.314;7.802;2023-05-12T12:43:53;100358.84;;;18.39;nan
48089;BME280;33867;50.314;7.802;2023-05-12T12:47:12;100364.16;;;18.26;nan
48089;BME280;33867;50.314;7.802;2023-05-12T12:50:31;100369.28;;;18.15;nan
48089;BME280;33867;50.314;7.802;2023-05-12T12:53:51;100366.72;;;18.49;nan
48089;BME280;33867;50.314;7.802;2023-05-12T12:57:10;100359.00;;;18.74;nan
48089;BME280;33867;50.314;7.802;2023-05-12T13:00:29;100362.56;;;19.03;nan
48089;BME280;33867;50.314;7.802;2023-05-12T13:03:48;100360.56;;;19.18;nan
48089;BME280;33867;50.314;7.802;2023-05-12T13:07:07;100364.13;;;19.12;nan
48089;BME280;33867;50.314;7.802;2023-05-12T13:10:27;100369.44;;;19.20;nan
48089;BME280;33867;50.314;7.802;2023-05-12T13:13:46;100382.63;;;19.16;nan
48089;BME280;33867;50.314;7.802;2023-05-12T13:17:05;100379.38;;;18.35;nan
48089;BME280;33867;50.314;7.802;2023-05-12T13:20:24;100377.31;;;18.59;nan
48089;BME280;33867;50.314;7.802;2023-05-12T13:23:44;100377.94;;;18.82;nan
48089;BME280;33867;50.314;7.802;2023-05-12T13:27:03;100385.97;;;18.26;nan
48089;BME280;33867;50.314;7.802;2023-05-12T13:30:26;100386.75;;;18.41;nan
48089;BME280;33867;50.314;7.802;2023-05-12T13:33:46;100378.06;;;18.53;nan
48089;BME280;33867;50.314;7.802;2023-05-12T13:37:05;100385.09;;;18.83;nan
48089;BME280;33867;50.314;7.802;2023-05-12T13:40:24;100380.66;;;18.82;nan
48089;BME280;33867;50.314;7.802;2023-05-12T13:43:43;100388.72;;;18.90;nan
48089;BME280;33867;50.314;7.802;2023-05-12T13:47:03;100382.09;;;18.99;nan
48089;BME280;33867;50.314;7.802;2023-05-12T13:50:25;100378.94;;;19.03;nan
48089;BME280;33867;50.314;7.802;2023-05-12T13:53:44;100384.38;;;18.96;nan
48089;BME280;33867;50.314;7.802;2023-05-12T13:57:07;100388.19;;;19.02;nan
48089;BME280;33867;50.314;7.802;2023-05-12T14:00:25;100378.66;;;19.19;nan
48089;BME280;33867;50.314;7.802;2023-05-12T14:03:47;100375.41;;;19.37;nan
48089;BME280;33867;50.314;7.802;2023-05-12T14:07:06;100379.69;;;19.46;nan
48089;BME280;33867;50.314;7.802;2023-05-12T14:10:25;100371.03;;;19.77;nan
48089;BME280;33867;50.314;7.802;2023-05-12T14:13:45;100379.75;;;20.61;nan
48089;BME280;33867;50.314;7.802;2023-05-12T14:17:04;100361.22;;;20.70;nan
48089;BME280;33867;50.314;7.802;2023-05-12T14:20:23;100368.19;;;20.66;nan
48089;BME280;33867;50.314;7.802;2023-05-12T14:23:42;100364.91;;;20.23;nan
48089;BME280;33867;50.314;7.802;2023-05-12T14:27:01;100370.00;;;20.39;nan
48089;BME280;33867;50.314;7.802;2023-05-12T14:30:20;100364.91;;;20.23;nan
48089;BME280;33867;50.314;7.802;2023-05-12T14:33:39;100364.88;;;20.09;nan
48089;BME280;33867;50.314;7.802;2023-05-12T14:36:59;100366.97;;;20.07;nan
48089;BME280;33867;50.314;7.802;2023-05-12T14:40:18;100361.97;;;20.24;nan
48089;BME280;33867;50.314;7.802;2023-05-12T14:43:37;100359.66;;;20.34;nan
48089;BME280;33867;50.314;7.802;2023-05-12T14:46:56;100361.25;;;20.63;nan
48089;BME280;33867;50.314;7.802;2023-05-12T14:50:16;100363.13;;;20.63;nan
48089;BME280;33867;50.314;7.802;2023-05-12T14:53:36;100359.47;;;20.36;nan
48089;BME280;33867;50.314;7.802;2023-05-12T14:56:56;100368.00;;;20.06;nan
48089;BME280;33867;50.314;7.802;2023-05-12T15:00:15;100374.81;;;19.69;nan
48089;BME280;33867;50.314;7.802;2023-05-12T15:03:35;100369.03;;;19.99;nan
48089;BME280;33867;50.314;7.802;2023-05-12T15:06:54;100370.66;;;19.80;nan
48089;BME280;33867;50.314;7.802;2023-05-12T15:10:13;100366.25;;;19.85;nan
48089;BME280;33867;50.314;7.802;2023-05-12T15:13:32;100358.16;;;20.19;nan
48089;BME280;33867;50.314;7.802;2023-05-12T15:16:51;100375.75;;;19.96;nan
48089;BME280;33867;50.314;7.802;2023-05-12T15:20:10;100375.09;;;19.53;nan
48089;BME280;33867;50.314;7.802;2023-05-12T15:23:29;100380.84;;;19.30;nan
48089;BME280;33867;50.314;7.802;2023-05-12T15:26:48;100387.53;;;19.55;nan
48089;BME280;33867;50.314;7.802;2023-05-12T15:30:08;100381.59;;;19.86;nan
48089;BME280;33867;50.314;7.802;2023-05-12T15:33:27;100383.00;;;19.76;nan
48089;BME280;33867;50.314;7.802;2023-05-12T15:36:46;100379.06;;;19.50;nan
48089;BME280;33867;50.314;7.802;2023-05-12T15:40:07;100373.75;;;19.77;nan
48089;BME280;33867;50.314;7.802;2023-05-12T15:43:26;100370.56;;;20.14;nan
48089;BME280;33867;50.314;7.802;2023-05-12T15:46:45;100379.13;;;19.98;nan
48089;BME280;33867;50.314;7.802;2023-05-12T15:50:05;100383.06;;;20.37;nan
48089;BME280;33867;50.314;7.802;2023-05-12T15:53:24;100371.22;;;20.17;nan
48089;BME280;33867;50.314;7.802;2023-05-12T15:56:44;100380.00;;;20.05;nan
48089;BME280;33867;50.314;7.802;2023-05-12T16:00:06;100386.94;;;19.60;nan
48089;BME280;33867;50.314;7.802;2023-05-12T16:03:31;100397.09;;;19.17;nan
48089;BME280;33867;50.314;7.802;2023-05-12T16:06:50;100398.38;;;18.93;nan
48089;BME280;33867;50.314;7.802;2023-05-12T16:10:09;100415.16;;;18.32;nan
48089;BME280;33867;50.314;7.802;2023-05-12T16:13:28;100425.50;;;17.71;nan
48089;BME280;33867;50.314;7.802;2023-05-12T16:16:49;100439.09;;;17.04;nan
48089;BME280;33867;50.314;7.802;2023-05-12T16:20:08;100445.75;;;16.79;nan
48089;BME280;33867;50.314;7.802;2023-05-12T16:23:28;100439.69;;;16.46;nan
48089;BME280;33867;50.314;7.802;2023-05-12T16:26:47;100463.22;;;15.99;nan
48089;BME280;33867;50.314;7.802;2023-05-12T16:30:06;100463.66;;;15.64;nan
48089;BME280;33867;50.314;7.802;2023-05-12T16:33:26;100453.28;;;15.67;nan
48089;BME280;33867;50.314;7.802;2023-05-12T16:36:45;100445.69;;;15.38;nan
48089;BME280;33867;50.314;7.802;2023-05-12T16:40:05;100447.84;;;15.59;nan
48089;BME280;33867;50.314;7.802;2023-05-12T16:43:24;100455.38;;;15.33;nan
48089;BME280;33867;50.314;7.802;2023-05-12T16:46:43;100457.22;;;15.65;nan
48089;BME280;33867;50.314;7.802;2023-05-12T16:50:02;100462.94;;;15.70;nan
48089;BME280;33867;50.314;7.802;2023-05-12T16:53:22;100455.88;;;15.44;nan
48089;BME280;33867;50.314;7.802;2023-05-12T16:56:41;100454.16;;;15.52;nan
48089;BME280;33867;50.314;7.802;2023-05-12T17:00:00;100457.03;;;15.66;nan
48089;BME280;33867;50.314;7.802;2023-05-12T17:03:23;100448.81;;;15.91;nan
48089;BME280;33867;50.314;7.802;2023-05-12T17:06:42;100451.31;;;16.00;nan
48089;BME280;33867;50.314;7.802;2023-05-12T17:10:02;100455.84;;;16.08;nan
48089;BME280;33867;50.314;7.802;2023-05-12T17:13:21;100453.66;;;16.12;nan
48089;BME280;33867;50.314;7.802;2023-05-12T17:16:40;100441.75;;;16.13;nan
48089;BME280;33867;50.314;7.802;2023-05-12T17:19:59;100439.63;;;15.92;nan
48089;BME280;33867;50.314;7.802;2023-05-12T17:23:18;100451.69;;;15.89;nan
48089;BME280;33867;50.314;7.802;2023-05-12T17:26:37;100448.81;;;15.91;nan
48089;BME280;33867;50.314;7.802;2023-05-12T17:29:57;100447.16;;;15.73;nan
48089;BME280;33867;50.314;7.802;2023-05-12T17:33:17;100450.41;;;15.69;nan
48089;BME280;33867;50.314;7.802;2023-05-12T17:36:36;100460.25;;;15.62;nan
48089;BME280;33867;50.314;7.802;2023-05-12T17:39:55;100459.25;;;15.55;nan
48089;BME280;33867;50.314;7.802;2023-05-12T17:43:15;100455.31;;;15.57;nan
48089;BME280;33867;50.314;7.802;2023-05-12T17:46:34;100450.25;;;15.62;nan
48089;BME280;33867;50.314;7.802;2023-05-12T17:49:53;100453.28;;;15.59;nan
48089;BME280;33867;50.314;7.802;2023-05-12T17:53:12;100460.28;;;15.45;nan
48089;BME280;33867;50.314;7.802;2023-05-12T17:56:31;100471.34;;;15.19;nan
48089;BME280;33867;50.314;7.802;2023-05-12T17:59:51;100476.75;;;15.03;nan
48089;BME280;33867;50.314;7.802;2023-05-12T18:03:10;100476.41;;;15.14;nan
48089;BME280;33867;50.314;7.802;2023-05-12T18:06:29;100476.59;;;15.21;nan
48089;BME280;33867;50.314;7.802;2023-05-12T18:09:48;100483.38;;;15.17;nan
48089;BME280;33867;50.314;7.802;2023-05-12T18:13:08;100479.47;;;15.28;nan
48089;BME280;33867;50.314;7.802;2023-05-12T18:16:28;100485.06;;;15.18;nan
48089;BME280;33867;50.314;7.802;2023-05-12T18:19:47;100489.47;;;15.11;nan
48089;BME280;33867;50.314;7.802;2023-05-12T18:23:09;100480.31;;;14.87;nan
48089;BME280;33867;50.314;7.802;2023-05-12T18:26:29;100476.00;;;14.44;nan
48089;BME280;33867;50.314;7.802;2023-05-12T18:29:48;100477.28;;;14.24;nan
48089;BME280;33867;50.314;7.802;2023-05-12T18:33:08;100486.72;;;14.20;nan
48089;BME280;33867;50.314;7.802;2023-05-12T18:36:27;100483.00;;;14.13;nan
48089;BME280;33867;50.314;7.802;2023-05-12T18:39:46;100480.50;;;14.27;nan
48089;BME280;33867;50.314;7.802;2023-05-12T18:43:07;100484.94;;;14.37;nan
48089;BME280;33867;50.314;7.802;2023-05-12T18:46:26;100485.53;;;14.14;nan
48089;BME280;33867;50.314;7.802;2023-05-12T18:49:45;100498.00;;;13.99;nan
48089;BME280;33867;50.314;7.802;2023-05-12T18:53:05;100499.16;;;13.96;nan
48089;BME280;33867;50.314;7.802;2023-05-12T18:56:24;100506.28;;;13.97;nan
48089;BME280;33867;50.314;7.802;2023-05-12T18:59:44;100516.53;;;13.86;nan
48089;BME280;33867;50.314;7.802;2023-05-12T19:03:04;100518.06;;;13.88;nan
48089;BME280;33867;50.314;7.802;2023-05-12T19:06:23;100516.38;;;13.61;nan
48089;BME280;33867;50.314;7.802;2023-05-12T19:09:42;100523.81;;;13.59;nan
48089;BME280;33867;50.314;7.802;2023-05-12T19:13:02;100534.34;;;13.70;nan
48089;BME280;33867;50.314;7.802;2023-05-12T19:16:21;100534.75;;;13.75;nan
48089;BME280;33867;50.314;7.802;2023-05-12T19:19:41;100539.00;;;13.78;nan
48089;BME280;33867;50.314;7.802;2023-05-12T19:23:00;100547.94;;;13.79;nan
48089;BME280;33867;50.314;7.802;2023-05-12T19:26:22;100556.06;;;13.79;nan
48089;BME280;33867;50.314;7.802;2023-05-12T19:29:41;100566.16;;;13.68;nan
48089;BME280;33867;50.314;7.802;2023-05-12T19:33:01;100578.56;;;13.53;nan
48089;BME280;33867;50.314;7.802;2023-05-12T19:36:19;100577.16;;;13.49;nan
48089;BME280;33867;50.314;7.802;2023-05-12T19:39:39;100580.25;;;13.54;nan
48089;BME280;33867;50.314;7.802;2023-05-12T19:42:58;100585.75;;;13.44;nan
48089;BME280;33867;50.314;7.802;2023-05-12T19:46:17;100591.47;;;13.41;nan
48089;BME280;33867;50.314;7.802;2023-05-12T19:49:36;100588.63;;;13.43;nan
48089;BME280;33867;50.314;7.802;2023-05-12T19:52:56;100586.53;;;13.19;nan
48089;BME280;33867;50.314;7.802;2023-05-12T19:56:15;100583.16;;;12.89;nan
48089;BME280;33867;50.314;7.802;2023-05-12T19:59:36;100597.72;;;13.06;nan
48089;BME280;33867;50.314;7.802;2023-05-12T20:02:55;100595.09;;;13.14;nan
48089;BME280;33867;50.314;7.802;2023-05-12T20:06:15;100607.38;;;13.09;nan
48089;BME280;33867;50.314;7.802;2023-05-12T20:09:34;100605.97;;;13.05;nan
48089;BME280;33867;50.314;7.802;2023-05-12T20:12:54;100599.03;;;13.02;nan
48089;BME280;33867;50.314;7.802;2023-05-12T20:16:14;100596.16;;;12.86;nan
48089;BME280;33867;50.314;7.802;2023-05-12T20:19:34;100594.28;;;12.69;nan
48089;BME280;33867;50.314;7.802;2023-05-12T20:22:53;100598.38;;;12.73;nan
48089;BME280;33867;50.314;7.802;2023-05-12T20:26:13;100601.38;;;12.70;nan
48089;BME280;33867;50.314;7.802;2023-05-12T20:29:32;100604.88;;;12.52;nan